Time;durP1;ratioP1;P1;durP2;ratioP2;P2;SDS_P1;SDS_P2;PMS_P1;PMS_P2;Temp;Humidity;BMP_temperature;BMP_pressure;BME280_temperature;BME280_humidity;BME280_pressure;Samples;Min_cycle;Max_cycle;Signal;HPM_P1;HPM_P2
2022/01/25 00:08:38;;;;;;;8.20;3.95;;;;;;;-4.14;55.65;101854.23;1769934;79;21062;-58
2022/01/25 00:24:31;;;;;;;8.50;3.47;;;;;;;-4.37;54.83;101846.00;1743596;80;21046;-59
2022/01/25 00:27:12;;;;;;;7.47;3.02;;;;;;;-4.39;54.88;101841.69;1734053;80;21062;-58
2022/01/25 00:32:16;;;;;;;6.00;2.33;;;;;;;-4.39;54.80;101837.39;1769772;79;23261;-58
2022/01/25 00:34:45;;;;;;;6.97;2.60;;;;;;;-4.33;54.60;101828.88;1771601;79;21152;-58
2022/01/25 00:37:12;;;;;;;5.75;2.83;;;;;;;-4.37;54.27;101831.86;1760726;79;21019;-59
2022/01/25 00:39:38;;;;;;;7.08;3.35;;;;;;;-4.43;54.06;101829.69;1741201;80;21078;-59
2022/01/25 00:42:06;;;;;;;8.63;3.15;;;;;;;-4.46;54.69;101830.52;1766370;79;21058;-59
2022/01/25 00:44:37;;;;;;;7.53;3.55;;;;;;;-4.43;54.64;101829.69;1761288;80;21110;-59
2022/01/25 00:47:02;;;;;;;11.12;4.47;;;;;;;-4.39;54.82;101829.69;1768239;80;21513;-60
2022/01/25 00:49:29;;;;;;;7.35;3.20;;;;;;;-4.36;55.08;101824.56;1735851;80;21131;-59
2022/01/25 00:56:49;;;;;;;9.63;3.60;;;;;;;-4.20;54.59;101807.92;1763435;81;21105;-59
2022/01/25 00:59:26;;;;;;;8.35;3.60;;;;;;;-4.24;54.58;101803.20;1756213;81;21120;-59
2022/01/25 01:01:56;;;;;;;6.47;3.05;;;;;;;-4.22;54.84;101810.52;1757253;79;21094;-58
2022/01/25 01:04:23;;;;;;;7.62;3.85;;;;;;;-4.20;54.92;101812.66;1793770;79;21033;-58
2022/01/25 01:06:50;;;;;;;7.30;3.30;;;;;;;-4.19;54.71;101814.80;1770989;79;21050;-59
2022/01/25 01:09:18;;;;;;;10.63;4.08;;;;;;;-4.16;54.55;101822.52;1785972;78;21269;-59
2022/01/25 01:11:52;;;;;;;7.45;3.20;;;;;;;-4.15;54.54;101822.53;1782420;78;21085;-59
2022/01/25 01:14:36;;;;;;;6.75;3.20;;;;;;;-4.19;53.92;101819.94;1770795;79;21054;-57
2022/01/25 01:43:35;;;;;;;9.58;3.80;;;;;;;-4.20;55.42;101807.92;1745428;79;21085;-60
2022/01/25 01:46:21;;;;;;;8.25;4.12;;;;;;;-4.22;55.54;101805.38;1756789;79;21088;-58
2022/01/25 01:48:35;;;;;;;7.20;3.47;;;;;;;-4.22;55.70;101806.66;1775084;78;21130;-59
2022/01/25 01:51:07;;;;;;;9.93;4.28;;;;;;;-4.22;55.65;101802.80;1801200;77;21557;-60
2022/01/25 01:53:32;;;;;;;9.25;4.08;;;;;;;-4.22;55.99;101802.80;1786876;78;21043;-59
2022/01/25 01:55:59;;;;;;;8.93;4.35;;;;;;;-4.22;55.65;101793.81;1802948;78;21017;-59
2022/01/25 01:58:25;;;;;;;10.00;4.45;;;;;;;-4.26;55.58;101802.34;1804846;78;21046;-59
2022/01/25 02:00:52;;;;;;;9.70;3.98;;;;;;;-4.28;55.75;101795.06;1748287;78;21220;-59
2022/01/25 02:03:18;;;;;;;8.38;4.30;;;;;;;-4.27;55.76;101802.33;1769108;79;21094;-60
2022/01/25 02:05:45;;;;;;;8.68;4.35;;;;;;;-4.22;55.83;101805.78;1779490;80;21026;-60
2022/01/25 02:08:11;;;;;;;7.90;3.30;;;;;;;-4.19;55.93;101803.23;1776509;80;21003;-60
2022/01/25 02:10:38;;;;;;;7.53;3.40;;;;;;;-4.12;55.56;101806.24;1764450;80;21512;-60
2022/01/25 02:13:07;;;;;;;9.15;4.20;;;;;;;-4.11;55.42;101802.39;1763032;79;21046;-60
2022/01/25 02:15:36;;;;;;;10.72;4.15;;;;;;;-4.09;55.43;101795.98;1761794;80;21040;-60
2022/01/25 02:23:38;;;;;;;8.20;3.00;;;;;;;-4.14;53.97;101787.39;1771069;79;21097;-59
2022/01/25 02:26:06;;;;;;;8.05;3.85;;;;;;;-4.17;54.35;101774.12;1756125;80;21142;-59
2022/01/25 02:28:38;;;;;;;9.30;3.45;;;;;;;-4.19;54.02;101777.52;1762932;79;21093;-60
2022/01/25 02:31:06;;;;;;;8.15;4.05;;;;;;;-4.27;53.59;101781.77;1760233;80;21092;-59
2022/01/25 02:33:33;;;;;;;7.95;4.35;;;;;;;-4.34;53.71;101776.63;1763424;80;21008;-59
2022/01/25 02:36:04;;;;;;;6.58;3.17;;;;;;;-4.35;53.98;101783.05;1739589;81;21116;-59
2022/01/25 02:38:31;;;;;;;7.80;3.17;;;;;;;-4.39;54.24;101781.30;1767055;80;21141;-60
2022/01/25 02:40:58;;;;;;;5.00;2.05;;;;;;;-4.40;54.46;101790.73;1768406;80;21019;-60
2022/01/25 02:43:25;;;;;;;6.80;3.10;;;;;;;-4.43;54.63;101783.44;1764409;79;21052;-58
2022/01/25 02:46:18;;;;;;;6.97;3.50;;;;;;;-4.43;54.68;101778.30;1763672;79;21190;-59
2022/01/25 02:48:31;;;;;;;9.18;3.35;;;;;;;-4.43;54.88;101774.01;1760862;79;21031;-59
2022/01/25 02:51:00;;;;;;;7.92;3.50;;;;;;;-4.43;54.68;101767.59;1758704;80;21126;-58
2022/01/25 02:53:27;;;;;;;7.08;4.10;;;;;;;-4.45;54.54;101769.70;1762809;80;21093;-58
2022/01/25 02:55:55;;;;;;;6.70;2.98;;;;;;;-4.52;54.43;101761.14;1743014;80;21081;-58
2022/01/25 02:58:21;;;;;;;8.33;3.52;;;;;;;-4.57;54.65;101759.83;1763637;80;21019;-58
2022/01/25 03:00:48;;;;;;;8.70;3.50;;;;;;;-4.56;54.92;101755.09;1740941;81;21046;-58
2022/01/25 03:03:14;;;;;;;6.30;2.83;;;;;;;-4.56;55.03;101743.98;1773793;79;21155;-58
2022/01/25 03:05:43;;;;;;;10.23;3.98;;;;;;;-4.53;55.39;101750.41;1784566;78;21071;-58
2022/01/25 03:08:13;;;;;;;7.15;3.58;;;;;;;-4.49;55.46;101755.98;1781154;79;21085;-58
2022/01/25 03:10:43;;;;;;;7.22;3.17;;;;;;;-4.42;55.39;101756.47;1777131;79;21077;-58
2022/01/25 03:13:15;;;;;;;7.42;2.83;;;;;;;-4.40;55.52;101748.33;1769225;79;21054;-58
2022/01/25 03:18:35;;;;;;;8.65;3.75;;;;;;;-4.37;55.50;101747.06;1773840;78;21093;-57
2022/01/25 03:20:51;;;;;;;9.08;4.05;;;;;;;-4.38;55.50;101736.34;1748425;79;21543;-59
2022/01/25 03:23:21;;;;;;;10.35;4.28;;;;;;;-4.39;55.55;101726.90;1777254;78;21059;-58
2022/01/25 03:25:48;;;;;;;6.67;3.12;;;;;;;-4.36;55.84;101725.63;1749401;79;21053;-59
2022/01/25 03:28:17;;;;;;;8.88;4.12;;;;;;;-4.28;55.83;101726.11;1778129;78;21094;-58
2022/01/25 03:30:44;;;;;;;12.65;5.30;;;;;;;-4.24;55.76;101722.23;1780428;79;21145;-58
2022/01/25 03:33:12;;;;;;;11.22;4.17;;;;;;;-4.20;55.77;101720.12;1772760;79;21550;-59
2022/01/25 03:35:39;;;;;;;12.33;4.47;;;;;;;-4.12;55.70;101725.27;1747286;79;21133;-58
2022/01/25 03:38:05;;;;;;;9.78;4.35;;;;;;;-4.06;55.61;101724.44;1767394;79;21046;-58
2022/01/25 03:40:33;;;;;;;8.68;4.12;;;;;;;-4.02;55.64;101714.58;1753727;79;21108;-58
2022/01/25 03:43:01;;;;;;;7.33;3.33;;;;;;;-3.93;55.63;101715.45;1775714;79;21081;-58
2022/01/25 03:45:31;;;;;;;8.55;3.42;;;;;;;-3.88;55.51;101704.30;1776613;78;21012;-58
2022/01/25 03:50:25;;;;;;;9.28;4.17;;;;;;;-3.81;55.51;101701.75;1796248;78;21003;-59
2022/01/25 03:52:52;;;;;;;9.98;4.30;;;;;;;-3.76;55.56;101696.17;1774331;80;21224;-58
2022/01/25 03:55:19;;;;;;;8.13;4.40;;;;;;;-3.68;54.67;101700.45;1744940;80;21031;-58
2022/01/25 03:57:45;;;;;;;8.03;3.85;;;;;;;-3.64;54.29;101692.75;1793853;78;21077;-58
2022/01/25 04:00:13;;;;;;;8.35;4.05;;;;;;;-3.65;54.01;101688.45;1773664;78;21705;-58
2022/01/25 04:02:49;;;;;;;7.55;3.58;;;;;;;-3.67;53.92;101685.02;1745423;80;21210;-58
2022/01/25 04:05:19;;;;;;;13.32;4.37;;;;;;;-3.73;53.95;101682.47;1794761;77;21856;-58
2022/01/25 04:07:50;;;;;;;7.97;4.03;;;;;;;-3.81;53.99;101667.03;1762767;80;21022;-58
2022/01/25 04:10:07;;;;;;;8.88;4.05;;;;;;;-3.83;53.88;101660.16;1796245;77;21018;-59
2022/01/25 04:12:33;;;;;;;7.35;4.55;;;;;;;-3.84;53.93;101668.31;1799365;77;21104;-58
2022/01/25 04:15:02;;;;;;;10.32;4.60;;;;;;;-3.84;54.08;101668.31;1811025;77;21035;-58
2022/01/25 04:17:29;;;;;;;9.13;3.75;;;;;;;-3.83;54.03;101671.73;1781246;80;21148;-58
2022/01/25 04:20:14;;;;;;;11.25;4.78;;;;;;;-3.83;53.89;101666.17;1736728;80;21038;-59
2022/01/25 04:25:21;;;;;;;7.65;3.83;;;;;;;-3.85;53.68;101668.30;1776054;78;21049;-58
2022/01/25 04:27:48;;;;;;;11.88;5.12;;;;;;;-3.88;53.44;101664.44;1748472;80;21062;-58
2022/01/25 04:30:14;;;;;;;9.75;4.58;;;;;;;-3.86;53.32;101669.18;1747608;80;21125;-58
2022/01/25 04:32:48;;;;;;;9.00;4.30;;;;;;;-3.87;53.23;101668.74;1793819;78;21077;-58
2022/01/25 04:35:14;;;;;;;8.40;3.62;;;;;;;-3.89;53.25;101672.59;1790309;78;21108;-58
2022/01/25 04:49:07;;;;;;;10.78;4.35;;;;;;;-3.88;52.68;101665.73;1805346;78;21046;-58
2022/01/25 04:51:31;;;;;;;12.50;4.37;;;;;;;-3.90;52.76;101659.73;1741624;80;21511;-60
2022/01/25 04:54:11;;;;;;;13.20;4.92;;;;;;;-3.93;52.62;101666.59;1775146;79;21059;-61
2022/01/25 04:56:19;;;;;;;8.33;4.37;;;;;;;-3.99;52.78;101669.16;1729094;80;21242;-59
2022/01/25 04:58:56;;;;;;;11.95;5.30;;;;;;;-4.01;52.85;101670.03;1797515;78;21034;-59
2022/01/25 05:01:12;;;;;;;9.53;3.60;;;;;;;-4.07;52.72;101676.44;1798945;78;21097;-60
2022/01/25 05:04:05;;;;;;;7.20;3.92;;;;;;;-4.08;52.93;101675.99;1774955;78;21046;-59
2022/01/25 05:06:26;;;;;;;9.80;4.30;;;;;;;-4.15;52.96;101664.88;1785446;80;21073;-60
2022/01/25 05:08:56;;;;;;;9.50;3.75;;;;;;;-4.22;52.68;101667.86;1779509;79;22250;-61
2022/01/25 05:11:28;;;;;;;8.60;3.72;;;;;;;-4.21;52.74;101663.57;1775810;78;21061;-60
2022/01/25 05:14:09;;;;;;;7.47;3.98;;;;;;;-4.22;52.99;101663.13;1773301;79;21105;-59
2022/01/25 05:16:36;;;;;;;9.90;4.42;;;;;;;-4.20;53.32;101663.98;1775679;80;21061;-60
2022/01/25 05:24:28;;;;;;;8.55;4.15;;;;;;;-4.16;53.25;101649.86;1790485;78;21465;-58
2022/01/25 05:26:54;;;;;;;11.25;6.03;;;;;;;-4.18;53.54;101650.30;1783214;78;21058;-60
2022/01/25 05:29:21;;;;;;;7.15;3.30;;;;;;;-4.18;53.48;101640.45;1786454;79;21034;-59
2022/01/25 05:31:47;;;;;;;11.25;4.17;;;;;;;-4.16;53.64;101640.02;1778547;79;21400;-59
2022/01/25 05:34:13;;;;;;;7.28;3.58;;;;;;;-4.17;53.74;101643.42;1747453;79;22010;-58
2022/01/25 05:36:42;;;;;;;8.53;4.00;;;;;;;-4.16;53.67;101646.00;1777766;78;21699;-58
2022/01/25 05:39:13;;;;;;;9.80;4.03;;;;;;;-4.20;53.53;101644.70;1788449;78;21029;-58
2022/01/25 05:41:39;;;;;;;10.85;4.12;;;;;;;-4.21;53.66;101643.86;1751553;78;22954;-59
2022/01/25 05:47:26;;;;;;;10.08;3.35;;;;;;;-4.12;53.54;101652.00;1751457;78;21228;-58
2022/01/25 05:49:12;;;;;;;7.67;3.22;;;;;;;-4.18;53.27;101647.72;1730742;79;22050;-59
2022/01/25 05:51:39;;;;;;;9.83;4.50;;;;;;;-4.30;53.41;101638.72;1804296;77;21642;-59
2022/01/25 05:54:05;;;;;;;8.70;3.40;;;;;;;-4.35;53.50;101648.14;1803640;78;21411;-58
2022/01/25 05:56:32;;;;;;;12.60;4.05;;;;;;;-4.41;53.86;101643.82;1773667;78;21025;-59
2022/01/25 05:58:58;;;;;;;9.93;4.70;;;;;;;-4.32;54.39;101646.83;1759823;80;21065;-59
2022/01/25 06:01:24;;;;;;;7.67;3.65;;;;;;;-4.24;54.01;101645.56;1783636;78;20994;-59
2022/01/25 06:03:51;;;;;;;8.38;3.72;;;;;;;-4.22;53.88;101648.99;1772809;78;20966;-60
2022/01/25 06:06:18;;;;;;;8.28;3.92;;;;;;;-4.17;54.22;101644.30;1784137;78;21014;-60
2022/01/25 06:08:44;;;;;;;7.85;3.58;;;;;;;-4.04;54.19;101638.73;1749033;78;21077;-59
2022/01/25 06:11:11;;;;;;;6.65;3.10;;;;;;;-3.90;53.47;101636.59;1749689;80;21030;-60
2022/01/25 06:13:37;;;;;;;17.05;4.50;;;;;;;-3.85;52.97;101638.73;1731117;81;21438;-60
2022/01/25 06:16:04;;;;;;;8.35;3.77;;;;;;;-3.94;52.81;101638.31;1748799;80;21196;-60
2022/01/25 06:19:54;;;;;;;9.53;4.05;;;;;;;-3.86;52.56;101643.47;1778742;78;22627;-59
2022/01/25 06:22:20;;;;;;;7.75;3.87;;;;;;;-4.02;52.53;101651.59;1744226;80;20951;-60
2022/01/25 06:24:46;;;;;;;10.90;4.20;;;;;;;-3.97;52.62;101657.19;1742378;80;21342;-58
2022/01/25 06:27:13;;;;;;;7.50;3.62;;;;;;;-3.87;52.65;101646.44;1722061;81;21051;-58
2022/01/25 06:29:40;;;;;;;8.15;3.65;;;;;;;-3.69;52.87;101648.16;1744839;80;21134;-58
2022/01/25 06:32:08;;;;;;;6.67;3.40;;;;;;;-3.53;52.54;101647.73;1742098;80;21046;-58
2022/01/25 06:34:34;;;;;;;8.50;3.37;;;;;;;-3.43;51.38;101631.82;1739150;80;21050;-59
2022/01/25 06:37:01;;;;;;;6.87;3.33;;;;;;;-3.47;51.22;101639.13;1714774;81;21168;-57
2022/01/25 06:39:27;;;;;;;8.70;3.80;;;;;;;-3.47;51.28;101630.97;1700918;82;21071;-59
2022/01/25 06:41:53;;;;;;;9.75;4.20;;;;;;;-3.45;51.05;101628.40;1701123;83;21043;-59
2022/01/25 06:44:20;;;;;;;10.40;4.17;;;;;;;-3.45;51.33;101630.97;1691826;83;21082;-59
2022/01/25 06:46:47;;;;;;;8.08;3.02;;;;;;;-3.37;51.14;101623.66;1699819;82;21437;-60
2022/01/25 06:49:14;;;;;;;9.65;5.30;;;;;;;-3.32;51.13;101619.79;1702591;83;21228;-60
2022/01/25 06:51:41;;;;;;;7.10;4.17;;;;;;;-3.29;50.91;101618.50;1695239;83;21110;-60
2022/01/25 06:54:09;;;;;;;10.03;4.30;;;;;;;-3.24;50.95;101619.34;1692541;83;21615;-60
2022/01/25 06:56:36;;;;;;;8.88;4.03;;;;;;;-3.22;50.94;101621.91;1694310;82;21178;-59
2022/01/25 06:59:02;;;;;;;8.40;3.58;;;;;;;-3.36;51.10;101621.52;1678127;83;21081;-59
2022/01/25 07:01:31;;;;;;;8.55;4.75;;;;;;;-3.37;51.17;101613.80;1708964;82;21411;-62
2022/01/25 07:03:57;;;;;;;9.48;5.75;;;;;;;-3.45;51.05;101615.09;1674469;83;21137;-60
2022/01/25 07:06:24;;;;;;;10.80;4.25;;;;;;;-3.60;51.35;101603.55;1673234;82;21129;-60
2022/01/25 07:08:50;;;;;;;7.37;4.33;;;;;;;-3.67;51.41;101609.14;1704910;82;21109;-58
2022/01/25 07:11:17;;;;;;;8.08;3.77;;;;;;;-3.75;51.27;101599.28;1688017;83;21616;-59
2022/01/25 07:13:43;;;;;;;10.18;4.28;;;;;;;-3.93;51.56;101598.45;1706284;82;21614;-60
2022/01/25 07:16:10;;;;;;;7.12;3.62;;;;;;;-4.07;51.70;101601.44;1694998;82;21556;-62
2022/01/25 07:18:37;;;;;;;8.58;4.08;;;;;;;-4.22;51.88;101600.16;1701907;82;21968;-60
2022/01/25 07:21:03;;;;;;;9.08;4.22;;;;;;;-4.27;52.27;101598.02;1698785;82;21013;-60
2022/01/25 07:23:30;;;;;;;8.65;4.17;;;;;;;-4.24;52.55;101594.16;1672884;82;21121;-61
2022/01/25 07:25:56;;;;;;;10.58;3.87;;;;;;;-4.23;52.69;101598.47;1699391;82;21122;-60
2022/01/25 07:28:22;;;;;;;10.48;5.05;;;;;;;-4.20;52.63;101591.61;1696081;82;21095;-60
2022/01/25 07:30:49;;;;;;;9.35;4.70;;;;;;;-4.12;52.52;101590.30;1672004;82;21866;-60
2022/01/25 07:33:16;;;;;;;7.00;4.35;;;;;;;-3.99;52.32;101584.30;1671555;84;21090;-60
2022/01/25 07:35:44;;;;;;;9.73;4.55;;;;;;;-3.86;52.08;101580.45;1746972;81;21050;-60
2022/01/25 07:38:14;;;;;;;10.15;4.05;;;;;;;-3.77;51.61;101577.42;1674334;83;21890;-60
2022/01/25 07:40:40;;;;;;;9.80;4.58;;;;;;;-3.70;51.40;101574.84;1742093;80;20991;-60
2022/01/25 07:43:07;;;;;;;8.08;4.05;;;;;;;-3.66;51.39;101569.70;1737045;80;20960;-60
2022/01/25 07:45:36;;;;;;;7.37;3.58;;;;;;;-3.61;51.49;101566.69;1736496;80;21655;-59
2022/01/25 07:48:05;;;;;;;7.90;3.98;;;;;;;-3.59;51.31;101557.67;1740422;80;21495;-60
2022/01/25 07:50:32;;;;;;;9.40;4.70;;;;;;;-3.60;51.49;101563.67;1720714;81;21101;-60
2022/01/25 07:53:00;;;;;;;7.12;3.52;;;;;;;-3.58;51.57;101567.97;1714032;82;21184;-61
2022/01/25 07:55:26;;;;;;;6.33;2.92;;;;;;;-3.49;51.41;101575.24;1718067;81;21090;-57
2022/01/25 07:57:53;;;;;;;10.25;4.50;;;;;;;-3.52;51.17;101576.09;1737784;80;21149;-60
2022/01/25 08:00:20;;;;;;;8.88;3.58;;;;;;;-3.64;51.06;101565.41;1740120;80;21064;-60
2022/01/25 08:02:47;;;;;;;7.10;3.58;;;;;;;-3.76;51.31;101569.30;1702734;82;21163;-60
2022/01/25 08:05:15;;;;;;;7.37;4.10;;;;;;;-3.85;51.62;101569.30;1703185;82;21676;-61
2022/01/25 08:07:44;;;;;;;10.70;4.08;;;;;;;-3.91;51.96;101562.45;1737491;81;21039;-61
2022/01/25 08:10:10;;;;;;;10.63;3.92;;;;;;;-3.82;52.22;101561.58;1736171;80;21150;-61
2022/01/25 08:12:37;;;;;;;12.93;4.53;;;;;;;-3.70;52.07;101549.97;1738878;80;21047;-61
2022/01/25 08:15:05;;;;;;;7.35;3.47;;;;;;;-3.60;52.21;101546.55;1737965;80;21149;-61
2022/01/25 08:17:32;;;;;;;8.68;3.52;;;;;;;-3.52;51.79;101537.50;1747140;80;21125;-61
2022/01/25 08:19:58;;;;;;;8.30;3.35;;;;;;;-3.47;51.58;101542.63;1735346;80;21036;-59
2022/01/25 08:22:25;;;;;;;6.60;3.17;;;;;;;-3.52;51.30;101532.78;1718629;81;21141;-59
2022/01/25 08:24:53;;;;;;;6.20;3.72;;;;;;;-3.65;51.42;101531.52;1731541;80;21028;-58
2022/01/25 08:27:22;;;;;;;10.40;3.90;;;;;;;-3.72;51.56;101531.12;1730716;81;23331;-59
2022/01/25 08:29:52;;;;;;;9.08;4.47;;;;;;;-3.74;51.61;101539.27;1730006;80;21173;-59
2022/01/25 08:32:20;;;;;;;9.03;3.83;;;;;;;-3.84;51.50;101530.72;1730264;80;21600;-59
2022/01/25 08:34:46;;;;;;;7.75;3.40;;;;;;;-3.98;51.83;101525.61;1721382;81;21091;-58
2022/01/25 08:37:13;;;;;;;6.30;2.80;;;;;;;-3.99;52.10;101527.73;1730066;80;21106;-61
2022/01/25 08:39:40;;;;;;;6.70;3.45;;;;;;;-3.97;52.07;101528.62;1730665;81;21169;-60
2022/01/25 08:42:08;;;;;;;6.75;2.85;;;;;;;-3.95;52.09;101525.61;1724955;81;21058;-60
2022/01/25 08:44:35;;;;;;;8.73;3.72;;;;;;;-3.97;51.79;101523.88;1731446;80;21052;-60
2022/01/25 08:47:03;;;;;;;6.85;2.95;;;;;;;-4.00;51.84;101521.31;1732095;80;21788;-59
2022/01/25 08:49:31;;;;;;;6.15;2.98;;;;;;;-4.00;51.96;101517.45;1730308;81;21691;-61
2022/01/25 08:51:58;;;;;;;10.05;3.98;;;;;;;-3.97;52.09;101511.02;1726897;80;21240;-63
2022/01/25 08:54:25;;;;;;;7.03;3.22;;;;;;;-3.93;51.80;101509.73;1727929;80;21487;-62
2022/01/25 08:56:53;;;;;;;10.23;4.42;;;;;;;-3.87;51.56;101507.58;1717177;81;21083;-60
2022/01/25 08:59:20;;;;;;;14.40;5.10;;;;;;;-3.86;51.65;101502.02;1733110;80;21472;-60
2022/01/25 09:01:47;;;;;;;7.83;3.27;;;;;;;-3.75;51.45;101496.39;1694380;82;21102;-61
2022/01/25 09:04:13;;;;;;;8.48;4.08;;;;;;;-3.64;51.18;101498.95;1731916;80;21154;-60
2022/01/25 09:06:40;;;;;;;9.28;3.92;;;;;;;-3.66;51.14;101491.67;1691483;82;21106;-60
2022/01/25 09:09:09;;;;;;;8.40;4.03;;;;;;;-3.67;51.60;101490.80;1665381;84;21119;-62
2022/01/25 09:11:37;;;;;;;8.18;4.22;;;;;;;-3.59;51.33;101488.22;1692098;82;21169;-60
2022/01/25 09:14:03;;;;;;;9.75;4.42;;;;;;;-3.59;51.18;101483.06;1689411;82;21264;-59
2022/01/25 09:16:32;;;;;;;7.70;3.25;;;;;;;-3.70;51.27;101483.53;1689868;83;20987;-60
2022/01/25 09:18:59;;;;;;;12.78;3.55;;;;;;;-3.78;51.58;101476.70;1692708;83;21078;-59
2022/01/25 09:21:28;;;;;;;6.97;3.47;;;;;;;-3.82;51.43;101468.55;1693858;83;21118;-64
2022/01/25 09:23:54;;;;;;;9.15;3.45;;;;;;;-3.86;51.80;101471.16;1696573;83;21569;-59
2022/01/25 09:26:22;;;;;;;8.40;3.98;;;;;;;-3.89;51.63;101470.73;1690204;82;22320;-58
2022/01/25 09:28:51;;;;;;;12.28;4.05;;;;;;;-3.90;51.61;101464.30;1697662;82;21125;-59
2022/01/25 09:31:19;;;;;;;8.45;3.65;;;;;;;-3.87;51.77;101456.58;1694042;83;21556;-57
2022/01/25 09:33:47;;;;;;;10.32;3.90;;;;;;;-3.75;52.05;101456.53;1693118;82;21059;-60
2022/01/25 09:36:13;;;;;;;8.58;3.80;;;;;;;-3.59;51.72;101456.90;1691420;82;22476;-61
2022/01/25 09:38:41;;;;;;;9.85;4.47;;;;;;;-3.55;51.23;101449.61;1665926;83;21914;-59
2022/01/25 09:41:07;;;;;;;9.83;4.80;;;;;;;-3.52;51.01;101446.15;1695302;83;21118;-58
2022/01/25 09:43:33;;;;;;;7.55;4.30;;;;;;;-3.45;50.84;101445.69;1693399;83;21087;-60
2022/01/25 09:46:00;;;;;;;9.95;4.35;;;;;;;-3.44;50.79;101446.13;1695376;82;21047;-59
2022/01/25 09:48:27;;;;;;;8.18;3.47;;;;;;;-3.44;50.61;101443.55;1692986;82;21155;-59
2022/01/25 09:50:55;;;;;;;9.30;4.87;;;;;;;-3.46;50.25;101440.11;1694484;82;21164;-61
2022/01/25 09:53:24;;;;;;;13.22;4.10;;;;;;;-3.47;50.41;101435.84;1722474;81;21070;-61
2022/01/25 09:55:51;;;;;;;13.00;6.42;;;;;;;-3.41;50.39;101424.24;1718949;80;20995;-60
2022/01/25 09:58:17;;;;;;;11.05;5.37;;;;;;;-3.35;50.05;101419.04;1718793;81;22006;-60
2022/01/25 10:00:46;;;;;;;9.90;4.72;;;;;;;-3.35;50.02;101417.75;1717717;81;21064;-58
2022/01/25 10:03:32;;;;;;;8.35;4.17;;;;;;;-3.38;49.91;101408.34;1716567;80;21081;-57
2022/01/25 10:05:55;;;;;;;13.93;5.78;;;;;;;-3.30;50.22;101404.86;1736931;80;21126;-60
2022/01/25 10:08:25;;;;;;;9.90;4.67;;;;;;;-3.14;50.23;101401.73;1681255;82;21435;-59
2022/01/25 10:10:57;;;;;;;8.93;4.15;;;;;;;-3.06;50.11;101405.99;1675932;82;21047;-60
2022/01/25 10:13:30;;;;;;;9.38;4.30;;;;;;;-3.00;49.99;101395.63;1715993;80;21090;-61
2022/01/25 10:16:10;;;;;;;10.95;3.65;;;;;;;-2.94;49.87;101393.87;1739350;80;21017;-61
2022/01/25 10:18:58;;;;;;;7.47;3.40;;;;;;;-2.99;49.34;101391.35;1722133;80;21306;-59
2022/01/25 10:21:30;;;;;;;8.40;3.62;;;;;;;-3.08;49.67;101388.83;1742585;80;20943;-58
2022/01/25 10:24:19;;;;;;;8.23;4.55;;;;;;;-3.07;49.58;101381.54;1743569;81;20935;-59
2022/01/25 10:26:58;;;;;;;9.43;4.42;;;;;;;-3.07;49.36;101387.98;1740012;80;21124;-59
2022/01/25 10:29:34;;;;;;;10.93;4.00;;;;;;;-3.17;49.32;101389.31;1707859;83;21064;-59
2022/01/25 10:32:05;;;;;;;;;;;;;;;-3.26;49.74;101386.82;1745179;80;21806;-62
2022/01/25 10:34:44;;;;;;;8.95;4.20;;;;;;;-3.25;49.54;101383.80;1742087;80;20177;-58
2022/01/25 10:37:10;;;;;;;9.15;4.20;;;;;;;-3.24;49.93;101385.53;1743791;80;21499;-60
2022/01/25 10:39:47;;;;;;;9.45;4.33;;;;;;;-3.14;49.85;101386.29;1715439;81;21106;-58
2022/01/25 10:42:31;;;;;;;7.42;4.10;;;;;;;-3.10;49.45;101391.86;1704338;82;21019;-59
2022/01/25 10:45:04;;;;;;;10.38;4.97;;;;;;;-3.17;49.56;101380.30;1698587;82;21181;-59
2022/01/25 10:47:46;;;;;;;9.75;5.08;;;;;;;-3.27;49.93;101368.38;1702787;82;21604;-59
2022/01/25 10:50:23;;;;;;;10.08;4.53;;;;;;;-3.31;50.18;101370.55;1692757;82;21877;-58
2022/01/25 10:53:15;;;;;;;7.97;4.35;;;;;;;-3.38;50.13;101353.42;1667123;82;21126;-60
2022/01/25 10:55:46;;;;;;;11.10;4.47;;;;;;;-3.39;50.23;101345.30;1697868;82;21063;-58
2022/01/25 10:58:13;;;;;;;9.98;5.28;;;;;;;-3.32;50.26;101344.38;1668772;83;21145;-58
2022/01/25 11:00:45;;;;;;;10.68;4.28;;;;;;;-3.19;50.38;101340.86;1661143;83;21115;-59
2022/01/25 11:03:14;;;;;;;9.23;5.28;;;;;;;-3.07;50.17;101337.33;1689936;83;22149;-57
2022/01/25 11:05:46;;;;;;;9.28;4.78;;;;;;;-3.03;49.82;101335.58;1622458;82;21074;-58
2022/01/25 11:08:17;;;;;;;12.93;5.03;;;;;;;-3.06;49.84;101336.88;1693651;82;21020;-59
2022/01/25 11:10:54;;;;;;;10.82;5.60;;;;;;;-3.14;49.79;101329.66;1671274;82;21115;-58
2022/01/25 11:15:57;;;;;;;11.12;4.60;;;;;;;-3.35;50.07;101322.52;1695690;83;21066;-58
2022/01/25 11:18:23;;;;;;;9.30;4.87;;;;;;;-3.40;50.06;101322.99;1689023;83;21176;-59
2022/01/25 11:20:50;;;;;;;10.93;5.12;;;;;;;-3.37;50.17;101324.27;1689268;83;22209;-60
2022/01/25 11:23:17;;;;;;;9.60;4.10;;;;;;;-3.26;50.31;101327.62;1669163;84;22128;-58
2022/01/25 11:25:45;;;;;;;17.02;5.12;;;;;;;-3.21;49.99;101314.69;1693952;83;21092;-58
2022/01/25 11:28:13;;;;;;;9.83;3.95;;;;;;;-3.10;50.02;101314.17;1696317;82;21091;-58
2022/01/25 11:30:40;;;;;;;12.70;4.30;;;;;;;-2.97;49.88;101306.36;1694878;82;21117;-58
2022/01/25 11:33:09;;;;;;;11.63;5.00;;;;;;;-2.88;49.25;101302.39;1699463;83;21117;-58
2022/01/25 11:35:36;;;;;;;10.60;4.80;;;;;;;-2.87;49.16;101298.96;1703396;83;22286;-58
2022/01/25 11:38:03;;;;;;;9.10;4.60;;;;;;;-2.91;49.26;101290.83;1695170;82;21067;-58
2022/01/25 11:40:39;;;;;;;10.08;4.70;;;;;;;-2.92;48.95;101295.14;1695864;82;21806;-59
2022/01/25 11:43:13;;;;;;;10.60;4.90;;;;;;;-2.99;49.06;101287.91;1695951;83;21055;-57
2022/01/25 11:45:44;;;;;;;11.88;4.92;;;;;;;-2.95;49.02;101284.86;1667367;83;21051;-58
2022/01/25 11:48:11;;;;;;;9.28;4.87;;;;;;;-2.90;49.06;101283.53;1697744;82;21145;-60
2022/01/25 11:50:42;;;;;;;9.68;5.20;;;;;;;-2.88;48.49;101276.19;1697811;83;21097;-58
2022/01/25 11:53:15;;;;;;;8.48;4.35;;;;;;;-2.91;48.43;101279.24;1696073;83;21087;-59
2022/01/25 11:55:48;;;;;;;6.37;3.83;;;;;;;-2.92;48.71;101274.53;1697723;83;21112;-58
2022/01/25 11:58:25;;;;;;;9.25;4.55;;;;;;;-2.85;48.53;101278.75;1696016;82;21058;-56
2022/01/25 12:00:54;;;;;;;10.88;5.33;;;;;;;-2.84;48.63;101265.42;1699615;82;21134;-60
2022/01/25 12:03:40;;;;;;;9.15;5.22;;;;;;;-2.69;48.48;101267.86;1667315;83;21081;-58
2022/01/25 12:06:17;;;;;;;9.88;5.60;;;;;;;-2.57;48.35;101256.56;1699641;83;21065;-59
2022/01/25 12:11:30;;;;;;;10.63;5.58;;;;;;;-2.34;48.27;101248.97;1694198;83;21083;-60
2022/01/25 12:14:21;;;;;;;10.53;5.22;;;;;;;-2.27;47.73;101246.72;1696832;82;21075;-59
2022/01/25 12:16:54;;;;;;;11.28;6.22;;;;;;;-2.32;47.39;101235.20;1695698;83;21122;-59
2022/01/25 12:19:37;;;;;;;12.15;6.58;;;;;;;-2.45;47.86;101225.48;1697574;82;21098;-59
2022/01/25 12:22:07;;;;;;;10.65;5.35;;;;;;;-2.43;47.74;101222.44;1697521;83;21146;-58
2022/01/25 12:24:59;;;;;;;9.08;5.55;;;;;;;-2.39;47.69;101221.11;1696170;83;21158;-58
2022/01/25 12:27:29;;;;;;;11.75;5.30;;;;;;;-2.41;47.58;101219.84;1695396;82;21539;-59
2022/01/25 12:30:01;;;;;;;11.85;5.65;;;;;;;-2.36;47.70;101218.50;1698887;83;21125;-58
2022/01/25 12:32:33;;;;;;;11.18;6.03;;;;;;;-2.32;47.84;101208.55;1698051;83;21570;-58
2022/01/25 12:35:17;;;;;;;15.38;7.00;;;;;;;-2.26;47.80;101203.32;1668691;83;21080;-60
2022/01/25 12:37:55;;;;;;;10.38;5.75;;;;;;;-2.23;47.67;101202.44;1699689;82;21039;-57
2022/01/25 12:40:32;;;;;;;9.90;4.67;;;;;;;-2.20;47.65;101198.50;1695629;83;21569;-57
2022/01/25 12:43:11;;;;;;;10.82;5.15;;;;;;;-2.22;47.65;101193.37;1704967;83;21027;-59
2022/01/25 12:45:49;;;;;;;11.15;6.28;;;;;;;-2.23;47.92;101203.28;1658667;84;21068;-59
2022/01/25 12:48:32;;;;;;;12.30;6.05;;;;;;;-2.18;47.94;101196.34;1696647;82;22321;-59
2022/01/25 12:51:03;;;;;;;11.63;6.28;;;;;;;-2.11;47.75;101195.81;1695348;83;21397;-57
2022/01/25 12:53:31;;;;;;;9.93;4.95;;;;;;;-2.09;47.72;101185.03;1669532;83;21090;-58
2022/01/25 12:56:02;;;;;;;7.85;5.15;;;;;;;-2.09;47.72;101185.03;1694448;83;21083;-59
2022/01/25 12:58:30;;;;;;;11.95;5.75;;;;;;;-1.89;47.38;101182.15;1691432;82;21095;-59
2022/01/25 13:01:00;;;;;;;11.38;6.33;;;;;;;-0.97;45.76;101173.23;1667766;84;21600;-59
2022/01/25 13:03:48;;;;;;;11.20;6.53;;;;;;;-0.97;45.76;101173.23;1696614;82;21547;-59
2022/01/25 13:06:22;;;;;;;12.70;6.15;;;;;;;-0.72;45.18;101168.43;1670635;83;21074;-58
2022/01/25 13:08:58;;;;;;;10.65;5.60;;;;;;;-0.52;44.77;101168.44;1671321;82;21114;-59